createdAt,value
2022-11-12T13:51:05.262Z,62.37
2022-11-12T13:52:05.238Z,63.39
2022-11-12T13:53:05.218Z,63.49
2022-11-12T13:54:05.233Z,63.72
2022-11-12T13:55:05.188Z,63.72
2022-11-12T13:56:05.193Z,63.82
2022-11-12T13:57:06.477Z,63.62
2022-11-12T13:58:05.231Z,63.75
2022-11-12T13:59:05.158Z,64.06
2022-11-12T14:00:05.128Z,64.06
2022-11-12T14:01:05.179Z,64.56
2022-11-12T14:02:05.109Z,65.20
2022-11-12T14:03:05.080Z,65.61
2022-11-12T14:04:05.084Z,66.12
2022-11-12T14:05:05.080Z,66.76
2022-11-12T14:06:05.072Z,66.76
2022-11-12T14:07:05.131Z,66.76
2022-11-12T14:08:05.020Z,66.55
2022-11-12T14:09:04.998Z,66.15
2022-11-12T14:10:05.028Z,66.49
2022-11-12T14:11:05.000Z,67.19
2022-11-12T14:12:04.967Z,67.91
2022-11-12T14:13:04.962Z,67.91
2022-11-12T14:14:04.962Z,67.91
2022-11-12T14:15:04.917Z,67.71
2022-11-12T14:16:04.928Z,68.01
2022-11-12T14:17:04.896Z,68.21
2022-11-12T14:18:04.887Z,68.11
2022-11-12T14:19:04.919Z,68.52
2022-11-12T14:20:04.974Z,68.21
2022-11-12T14:21:04.867Z,68.01
2022-11-12T14:22:04.839Z,68.01
2022-11-12T14:23:04.810Z,68.01
2022-11-12T14:24:04.936Z,67.83
2022-11-12T14:25:04.797Z,68.04
2022-11-12T14:26:04.787Z,68.35
2022-11-12T14:27:04.767Z,68.85
2022-11-12T14:28:04.760Z,69.40
2022-11-12T14:29:04.745Z,69.70
2022-11-12T14:30:04.813Z,69.70
2022-11-12T14:31:04.805Z,70.14
2022-11-12T14:32:04.724Z,70.95
2022-11-12T14:33:04.687Z,71.06
2022-11-12T14:34:04.683Z,71.19
2022-11-12T14:35:04.649Z,71.50
2022-11-12T14:36:04.691Z,71.60
2022-11-12T14:37:04.628Z,71.63
2022-11-12T14:38:04.614Z,71.63
2022-11-12T14:39:04.606Z,71.63
2022-11-12T14:40:04.633Z,71.63
2022-11-12T14:41:04.592Z,71.97
2022-11-12T14:42:04.595Z,72.08
2022-11-12T14:43:04.571Z,72.17
2022-11-12T14:44:12.839Z,72.17
2022-11-12T14:45:05.534Z,72.17
2022-11-12T14:46:04.515Z,72.41
2022-11-12T14:47:04.503Z,72.72
2022-11-12T14:48:04.496Z,73.03
2022-11-12T14:49:04.505Z,73.33
2022-11-12T14:50:04.467Z,73.54
2022-11-12T14:51:04.447Z,73.57
2022-11-12T14:52:04.426Z,74.29
2022-11-12T14:53:04.428Z,74.38
2022-11-12T14:54:04.406Z,75.00
2022-11-12T14:55:04.408Z,75.13
2022-11-12T14:56:04.376Z,75.34
2022-11-12T14:57:04.384Z,75.44
2022-11-12T14:58:04.357Z,75.68
2022-11-12T14:59:04.353Z,76.09
2022-11-12T15:00:04.386Z,76.60
2022-11-12T15:01:04.361Z,76.64
2022-11-12T15:03:05.323Z,76.74
2022-11-12T15:04:04.286Z,77.08
2022-11-12T15:05:04.287Z,77.49
2022-11-12T15:06:04.246Z,78.00
2022-11-12T15:07:04.291Z,78.04
2022-11-12T15:08:04.229Z,78.65
2022-11-12T15:09:04.205Z,78.55
2022-11-12T15:10:04.239Z,78.45
2022-11-12T15:11:04.173Z,78.55
2022-11-12T15:12:04.190Z,78.28
2022-11-12T15:13:04.153Z,77.97
2022-11-12T15:14:04.138Z,78.17
2022-11-12T15:15:04.165Z,78.38
2022-11-12T15:16:04.103Z,78.63
2022-11-12T15:17:04.102Z,79.13
2022-11-12T15:18:04.093Z,79.24
2022-11-12T15:19:04.064Z,79.79
2022-11-12T15:20:04.125Z,79.89
2022-11-12T15:21:04.045Z,80.13
2022-11-12T15:22:04.044Z,80.54
2022-11-12T15:23:04.033Z,80.64
2022-11-12T15:24:04.005Z,80.78
2022-11-12T15:25:04.043Z,80.99
2022-11-12T15:26:03.993Z,81.13
2022-11-12T15:27:03.962Z,81.43
2022-11-12T15:28:03.962Z,81.54
2022-11-12T15:29:03.933Z,81.43
2022-11-12T15:30:03.942Z,81.57
2022-11-12T15:31:03.921Z,81.57
2022-11-12T15:32:03.905Z,81.78
2022-11-12T15:33:03.896Z,82.03
2022-11-12T15:34:03.863Z,82.03
2022-11-12T15:35:03.936Z,81.92
2022-11-12T15:36:03.854Z,81.82
2022-11-12T15:37:03.829Z,81.82
2022-11-12T15:38:03.846Z,81.86
2022-11-12T15:39:03.795Z,81.86
2022-11-12T15:40:03.822Z,82.17
2022-11-12T15:41:03.787Z,82.41
2022-11-12T15:42:03.767Z,82.71
2022-11-12T15:43:03.780Z,82.82
2022-11-12T15:44:03.740Z,82.82
2022-11-12T15:45:03.733Z,82.71
2022-11-12T15:46:03.712Z,82.96
2022-11-12T15:47:03.704Z,83.17
2022-11-12T15:48:03.691Z,83.68
2022-11-12T15:49:03.709Z,83.99
2022-11-12T15:50:03.684Z,84.34
2022-11-12T15:51:03.643Z,84.34
2022-11-12T15:52:03.679Z,84.34
2022-11-12T15:53:03.622Z,84.44
2022-11-12T15:54:03.639Z,84.79
2022-11-12T15:55:03.617Z,84.89
2022-11-12T15:56:03.593Z,84.89
2022-11-12T15:57:03.556Z,84.89
2022-11-12T15:58:03.564Z,85.10
2022-11-12T15:59:03.542Z,85.14
2022-11-12T16:00:08.178Z,85.14
2022-11-12T16:01:04.561Z,85.34
2022-11-12T16:02:03.503Z,85.34
2022-11-12T16:03:03.482Z,85.17
2022-11-12T16:04:03.485Z,85.28
2022-11-12T16:05:03.465Z,85.79
2022-11-12T16:06:08.547Z,85.89
2022-11-12T16:07:04.464Z,85.83
2022-11-12T16:08:03.420Z,85.83
2022-11-12T16:09:03.421Z,85.83
2022-11-12T16:10:03.421Z,85.94
2022-11-12T16:11:03.402Z,85.94
2022-11-12T16:12:03.385Z,86.08
2022-11-12T16:13:03.351Z,85.97
2022-11-12T16:14:03.350Z,85.97
2022-11-12T16:15:03.370Z,86.12
2022-11-12T16:16:03.320Z,86.12
2022-11-12T16:17:03.287Z,86.22
2022-11-12T16:18:03.315Z,85.81
2022-11-12T16:19:03.266Z,85.60
2022-11-12T16:20:03.280Z,85.60
2022-11-12T16:21:03.263Z,85.81
2022-11-12T16:22:03.226Z,85.85
2022-11-12T16:23:03.249Z,85.75
2022-11-12T16:24:03.198Z,85.64
2022-11-12T16:25:03.227Z,85.54
2022-11-12T16:26:03.201Z,85.54
2022-11-12T16:27:03.157Z,85.64
2022-11-12T16:28:03.209Z,85.64
2022-11-12T16:29:03.126Z,85.23
2022-11-12T16:30:03.143Z,85.23
2022-11-12T16:31:03.097Z,85.75
2022-11-12T16:32:03.106Z,86.30
2022-11-12T16:33:03.066Z,85.99
2022-11-12T16:34:03.089Z,85.89
2022-11-12T16:35:03.066Z,86.10
2022-11-12T16:36:03.036Z,86.61
2022-11-12T16:37:03.063Z,86.61
2022-11-12T16:38:03.024Z,86.61
2022-11-12T16:39:03.017Z,86.44
2022-11-12T16:40:02.986Z,86.03
2022-11-12T16:41:02.974Z,85.62
2022-11-12T16:42:02.982Z,85.52
2022-11-12T16:43:02.952Z,85.93
2022-11-12T16:44:02.957Z,86.76
2022-11-12T16:45:02.914Z,86.65
2022-11-12T16:46:02.925Z,86.96
2022-11-12T16:47:02.885Z,86.96
2022-11-12T16:48:02.894Z,86.65
2022-11-12T16:49:02.883Z,86.59
2022-11-12T16:50:02.868Z,86.59
2022-11-12T16:51:02.918Z,86.49
2022-11-12T16:52:02.855Z,86.59
2022-11-12T16:53:02.815Z,86.90
2022-11-12T16:54:02.861Z,87.25
2022-11-12T16:55:04.781Z,87.76
2022-11-12T16:56:02.793Z,87.87
2022-11-12T16:57:02.764Z,87.46
2022-11-12T16:58:02.771Z,87.15
2022-11-12T16:59:02.734Z,86.83
2022-11-12T17:00:02.720Z,86.73
2022-11-12T17:01:02.760Z,86.52
2022-11-12T17:02:02.695Z,86.32
2022-11-12T17:03:02.683Z,86.25
2022-11-12T17:04:03.004Z,86.15
2022-11-12T17:05:02.663Z,85.84
2022-11-12T17:06:02.643Z,85.84
2022-11-12T17:07:02.699Z,85.94
2022-11-12T17:08:02.611Z,86.25
2022-11-12T17:09:02.650Z,86.57
2022-11-12T17:10:02.606Z,86.71
2022-11-12T17:11:02.583Z,86.81
2022-11-12T17:12:02.564Z,87.54
2022-11-12T17:13:02.553Z,87.43
2022-11-12T17:14:02.543Z,87.12
2022-11-12T17:15:02.519Z,87.23
2022-11-12T17:16:02.541Z,87.23
2022-11-12T17:17:02.501Z,87.43
2022-11-12T17:18:02.500Z,87.47
2022-11-12T17:19:02.493Z,87.37
2022-11-12T17:20:02.472Z,87.47
2022-11-12T17:21:02.442Z,87.27
2022-11-12T17:22:02.441Z,87.06
2022-11-12T17:23:02.409Z,86.54
2022-11-12T17:24:02.435Z,87.16
2022-11-12T17:25:02.391Z,87.16
2022-11-12T17:26:02.391Z,87.06
2022-11-12T17:27:02.360Z,87.20
2022-11-12T17:28:02.350Z,87.41
2022-11-12T17:29:07.682Z,87.10
2022-11-12T17:30:03.362Z,87.20
2022-11-12T17:31:02.310Z,87.10
2022-11-12T17:32:02.296Z,86.79
2022-11-12T17:33:02.297Z,86.68
2022-11-12T17:34:02.291Z,87.30
2022-11-12T17:35:02.267Z,87.20
2022-11-12T17:36:02.259Z,87.24
2022-11-12T17:37:02.249Z,87.04
2022-11-12T17:38:02.219Z,86.72
2022-11-12T17:39:02.226Z,86.83
2022-11-12T17:40:02.189Z,86.93
2022-11-12T17:41:02.194Z,86.83
2022-11-12T17:42:02.180Z,87.04
2022-11-12T17:43:02.163Z,87.24
2022-11-12T17:44:02.147Z,86.72
2022-11-12T17:45:02.128Z,86.41
2022-11-12T17:46:02.156Z,86.21
2022-11-12T17:47:02.122Z,86.04
2022-11-12T17:48:02.106Z,86.35
2022-11-12T17:49:02.099Z,86.55
2022-11-12T17:50:02.059Z,87.28
2022-11-12T17:51:02.046Z,86.97
2022-11-12T17:52:02.025Z,86.76
2022-11-12T17:53:02.058Z,86.55
2022-11-12T17:54:02.007Z,86.35
2022-11-12T17:55:02.008Z,86.29
2022-11-12T17:56:01.985Z,86.39
2022-11-12T17:57:01.977Z,86.60
2022-11-12T17:58:01.976Z,86.39
2022-11-12T17:59:01.943Z,86.29
2022-11-12T18:00:01.980Z,86.29
2022-11-12T18:01:01.959Z,86.18
2022-11-12T18:02:01.900Z,86.08
2022-11-12T18:03:01.935Z,86.22
2022-11-12T18:04:01.873Z,86.74
2022-11-12T18:05:01.855Z,86.74
2022-11-12T18:06:01.844Z,86.54
2022-11-12T18:07:01.893Z,86.43
2022-11-12T18:08:01.861Z,87.05
2022-11-12T18:09:01.830Z,86.85
2022-11-12T18:10:01.825Z,86.43
2022-11-12T18:11:01.787Z,86.33
2022-11-12T18:12:01.775Z,86.22
2022-11-12T18:13:01.779Z,86.12
2022-11-12T18:14:01.815Z,86.02
2022-11-12T18:15:01.722Z,86.57
2022-11-12T18:16:01.728Z,86.47
2022-11-12T18:17:01.704Z,86.47
2022-11-12T18:18:01.704Z,86.88
2022-11-12T18:19:01.666Z,86.99
2022-11-12T18:20:01.655Z,87.19
2022-11-12T18:21:01.652Z,87.30
2022-11-12T18:22:01.635Z,87.09
2022-11-12T18:23:01.632Z,86.78
2022-11-12T18:24:01.627Z,86.57
2022-11-12T18:25:01.603Z,86.36
2022-11-12T18:26:01.577Z,86.26
2022-11-12T18:27:01.572Z,86.16
2022-11-12T18:28:01.560Z,86.16
2022-11-12T18:29:01.548Z,86.41
2022-11-12T18:30:01.525Z,86.41
2022-11-12T18:31:01.512Z,86.61
2022-11-12T18:32:01.498Z,86.93
2022-11-12T18:33:01.511Z,87.13
2022-11-12T18:34:01.478Z,86.93
